< < Back
Terminal Aerodrome Forecast


Current Version              Previous Versions:   1  2  3  4  5  6  7  8  9  

Terminal Aerodrome Forecast

630
FTUS42 KMLB 241100
TAFDAB
TAF
KDAB 241137Z 2412/2512 32005KT P6SM BKN040
     FM241400 04010KT P6SM FEW035 FEW250
     FM250000 01005KT P6SM FEW250=

Latest METAR

554
SAUS80 KWBC 241500
MTRDAB
METAR KDAB 241453Z 04011KT 10SM FEW045 FEW140 24/14 A3002 RMK AO2 SLP165
T02440139 51009


USA.gov is the U.S. government's official web portal to all federal, state and local government web resources and services.